Gilchrist, Texas
Current Conditions -  °F | °C
As of 3:35 PM on Friday 19 Dec 2014 (Local Time) from KXIH Reporting Station
Haze Haze  
Wind Chill: 59°   Ceiling: 900
Heat Index: 59°   Visibility: 2.5mi
Dew Point: 57°   Wind: 28mph
Humidity: 94%   Direction: 50°NE
Pressure: 29.95"   Gusts: NA
Location:  29.51°N, 94.49°W
Report Text: KXIH 192135Z AUTO 05024KT 2 1/2SM BR BKN009 BKN014 OVC039 15/14 A2995 RMK A01
Loading
Personal Weather Stations






























Interactive Weather Map New forecast layout! Learn more

10-Day Weather Forecast

Advertisements
Track Severe Weather on mobile